Data for 11/17/2006

Time Sea-Level Adjusted Pressure Absolute Pressure Temperature Relative Humidity Dew Point   
(mb) (inHg) (mb) (inHg) (C) (F) (%) (C) (F)
00:05 1018 30.06 847 25.01 -0.1 31.8 69 -5 23
00:10 1018 30.06 847 25.01 0.1 32.2 68 -5 23
00:15 1018 30.06 847 25.01 0.4 32.7 68 -4.9 23.2
00:20 1018 30.06 847 25.01 0.3 32.6 69 -4.8 23.4
00:25 1018 30.06 847 25.01 -0.2 31.7 71 -4.7 23.5
00:30 1018 30.06 848 25.04 -0.6 31 69 -5.7 21.8
00:35 1018 30.06 848 25.04 -0.1 31.8 64 -6 21.2
00:40 1018 30.06 847 25.01 0.5 32.8 61 -6.3 20.7
00:45 1018 30.06 847 25.01 0.9 33.6 59 -6.2 20.9
00:50 1018 30.06 847 25.01 1.1 33.9 58 -6.2 20.8
00:55 1018 30.06 847 25.01 1.2 34.2 58 -6.1 20.9
01:00 1018 30.06 847 25.01 1.2 34.2 58 -6.1 21
01:05 1018 30.06 848 25.04 1.2 34.2 60 -5.7 21.7
01:10 1018 30.06 848 25.04 1.1 33.9 62 -5.5 22.1
01:15 1018 30.06 848 25.04 0.7 33.3 67 -4.6 23.7
01:20 1018 30.06 848 25.04 0.1 32.2 71 -4.5 23.8
01:25 1018 30.06 848 25.04 -0.1 31.8 72 -4.6 23.8
01:30 1018 30.06 848 25.04 -0.2 31.7 73 -4.4 24
01:35 1018 30.06 848 25.04 -0.7 30.7 77 -4.3 24.3
01:40 1018 30.06 848 25.04 -0.8 30.5 74 -4.9 23.2
01:45 1018 30.06 848 25.04 -0.6 30.9 71 -5.2 22.6
01:50 1018 30.06 848 25.04 -0.3 31.5 69 -5.3 22.5
01:55 1018 30.06 848 25.04 -0.1 31.8 69 -5.1 22.8
02:00 1018 30.06 848 25.04 -0.4 31.4 70 -5.1 22.8
02:05 1019 30.09 848 25.04 -0.3 31.4 67 -5.8 21.6
02:10 1019 30.09 848 25.04 -0.2 31.7 64 -6.2 20.9
02:15 1019 30.09 848 25.04 0 32 64 -6 21.2
02:20 1019 30.09 848 25.04 -0.1 31.8 67 -5.6 22
02:25 1019 30.09 848 25.04 -0.3 31.5 67 -5.8 21.6
02:30 1019 30.09 848 25.04 -0.3 31.4 67 -5.7 21.7
02:35 1019 30.09 848 25.04 -0.5 31.1 69 -5.6 22
02:40 1019 30.09 848 25.04 -0.8 30.6 69 -5.7 21.7
02:45 1019 30.09 848 25.04 -0.9 30.4 70 -5.7 21.7
02:50 1019 30.09 848 25.04 -0.8 30.6 70 -5.6 21.9
02:55 1019 30.09 848 25.04 -0.8 30.5 70 -5.5 22
03:00 1019 30.09 848 25.04 -1.2 29.9 72 -5.6 21.9
03:05 1019 30.09 848 25.04 -1.5 29.2 75 -5.3 22.4
03:10 1019 30.09 848 25.04 -1.7 28.9 77 -5.3 22.5
03:15 1019 30.09 848 25.04 -1.5 29.3 73 -5.7 21.8
03:20 1019 30.09 848 25.04 -1 30.2 72 -5.5 22.2
03:25 1019 30.09 848 25.04 -0.9 30.4 73 -5.1 22.9
03:30 1019 30.09 848 25.04 -0.5 31.2 69 -5.5 22.1
03:35 1019 30.09 848 25.04 -0.4 31.2 70 -5.3 22.4
03:40 1019 30.09 848 25.04 -0.8 30.6 71 -5.4 22.2
03:45 1019 30.09 848 25.04 -1.3 29.7 72 -5.6 21.9
03:50 1019 30.09 848 25.04 -1.5 29.3 73 -5.8 21.6
03:55 1019 30.09 848 25.04 -1.4 29.5 72 -5.7 21.7
04:00 1019 30.09 848 25.04 -1.4 29.5 73 -5.7 21.8
04:05 1019 30.09 848 25.04 -1.5 29.4 74 -5.5 22.1
04:10 1019 30.09 848 25.04 -1.6 29.1 74 -5.6 21.9
04:15 1019 30.09 848 25.04 -1.8 28.8 73 -5.9 21.3
04:20 1019 30.09 848 25.04 -1.5 29.3 71 -6.1 21.1
04:25 1019 30.09 848 25.04 -1.4 29.5 69 -6.3 20.7
04:30 1019 30.09 848 25.04 -1.6 29.1 71 -6.3 20.7
04:35 1019 30.09 848 25.04 -1.9 28.6 71 -6.4 20.5
04:40 1019 30.09 848 25.04 -2 28.5 72 -6.4 20.6
04:45 1019 30.09 848 25.04 -2.2 28 73 -6.3 20.6
04:50 1019 30.09 848 25.04 -2.6 27.3 75 -6.4 20.4
04:55 1019 30.09 848 25.04 -2.5 27.4 74 -6.6 20.1
05:00 1019 30.09 848 25.04 -2.3 27.8 73 -6.6 20.1
05:05 1019 30.09 848 25.04 -2.3 27.9 73 -6.5 20.3
05:10 1019 30.09 848 25.04 -2.1 28.2 72 -6.5 20.4
05:15 1019 30.09 848 25.04 -2.1 28.2 73 -6.4 20.6
05:20 1019 30.09 848 25.04 -2.6 27.4 75 -6.3 20.6
05:25 1019 30.09 848 25.04 -2.8 26.9 75 -6.6 20.2
05:30 1019 30.09 848 25.04 -2.6 27.3 73 -6.7 19.9
05:35 1019 30.09 848 25.04 -2.5 27.6 73 -6.7 20
05:40 1019 30.09 849 25.07 -2.6 27.2 74 -6.7 19.9
05:45 1019 30.09 849 25.07 -2.6 27.4 74 -6.6 20.1
05:50 1019 30.09 849 25.07 -2.8 27 74 -6.8 19.8
05:55 1019 30.09 849 25.07 -2.9 26.8 75 -6.7 20
06:00 1019 30.09 849 25.07 -2.9 26.7 74 -7 19.5
06:05 1019 30.09 849 25.07 -2.7 27.1 73 -6.9 19.5
06:10 1019 30.09 849 25.07 -2.7 27.2 74 -6.6 20.1
06:15 1020 30.12 849 25.07 -2.9 26.7 75 -6.7 19.9
06:20 1020 30.12 849 25.07 -2.9 26.8 75 -6.7 19.9
06:25 1020 30.12 849 25.07 -3 26.5 76 -6.7 19.9
06:30 1020 30.12 849 25.07 -2.9 26.8 74 -6.9 19.6
06:35 1020 30.12 849 25.07 -2.8 26.9 74 -6.8 19.7
06:40 1020 30.12 849 25.07 -2.8 27 73 -6.9 19.6
06:45 1020 30.12 849 25.07 -2.6 27.3 71 -7.2 19.1
06:50 1020 30.12 849 25.07 -2.6 27.4 72 -6.9 19.5
06:55 1020 30.12 849 25.07 -2.6 27.3 74 -6.7 20
07:00 1020 30.12 849 25.07 -3 26.6 75 -6.8 19.8
07:05 1020 30.12 849 25.07 -3.1 26.4 76 -6.8 19.8
07:10 1020 30.12 849 25.07 -3.1 26.5 75 -6.9 19.7
07:15 1020 30.12 849 25.07 -3 26.6 74 -6.9 19.5
07:20 1020 30.12 849 25.07 -3 26.7 74 -7 19.4
07:25 1020 30.12 849 25.07 -2.9 26.8 74 -6.9 19.6
07:30 1020 30.12 849 25.07 -2.2 28 71 -6.8 19.8
07:35 1020 30.12 849 25.07 -2.1 28.3 71 -6.7 19.9
07:40 1020 30.12 849 25.07 -2.2 28.1 72 -6.5 20.2
07:45 1020 30.12 849 25.07 -2.2 28 71 -6.7 19.9
07:50 1020 30.12 849 25.07 -2.2 28.1 72 -6.5 20.2
07:55 1020 30.12 849 25.07 -1.9 28.6 69 -6.8 19.8
08:00 1020 30.12 849 25.07 -1.7 28.9 69 -6.6 20
08:05 1020 30.12 849 25.07 -2 28.5 71 -6.6 20.1
08:10 1020 30.12 849 25.07 -2.3 27.8 72 -6.6 20
08:15 1020 30.12 849 25.07 -2.5 27.5 74 -6.6 20.1
08:20 1020 30.12 849 25.07 -2.5 27.4 73 -6.8 19.8
08:25 1020 30.12 849 25.07 -2.3 27.9 71 -6.8 19.8
08:30 1020 30.12 849 25.07 -2.2 28 71 -6.7 19.9
08:35 1020 30.12 849 25.07 -2.1 28.1 71 -6.8 19.8
08:40 1020 30.12 849 25.07 -1.8 28.8 71 -6.5 20.3
08:45 1020 30.12 849 25.07 -2 28.4 73 -6.3 20.7
08:50 1020 30.12 849 25.07 -1.8 28.8 72 -6.2 20.8
08:55 1020 30.12 849 25.07 -1.7 29 71 -6.2 20.8
09:00 1020 30.12 849 25.07 -1.1 29.9 69 -6 21.2
09:05 1020 30.12 849 25.07 -1 30.2 70 -5.8 21.6
09:10 1020 30.12 849 25.07 -0.9 30.3 70 -5.8 21.5
09:15 1020 30.12 849 25.07 -0.3 31.5 67 -5.7 21.7
09:20 1020 30.12 849 25.07 0.4 32.6 61 -6.2 20.8
09:25 1020 30.12 850 25.1 1.2 34.2 56 -6.5 20.3
09:30 1020 30.12 850 25.1 1.8 35.3 56 -6 21.3
09:35 1020 30.12 850 25.1 2 35.7 56 -5.9 21.3
09:40 1021 30.15 850 25.1 1.8 35.3 56 -6.1 21.1
09:45 1021 30.15 850 25.1 2.1 35.8 55 -6 21.2
09:50 1021 30.15 850 25.1 2.5 36.5 56 -5.3 22.4
09:55 1021 30.15 850 25.1 3.3 37.9 53 -5.5 22.2
10:00 1021 30.15 850 25.1 3.1 37.5 52 -5.9 21.4
10:05 1021 30.15 850 25.1 3.6 38.5 50 -5.8 21.6
10:10 1021 30.15 850 25.1 3.8 38.9 50 -5.7 21.8
10:15 1021 30.15 850 25.1 4.2 39.6 49 -5.5 22.1
10:20 1021 30.15 850 25.1 4 39.1 51 -5.4 22.3
10:25 1021 30.15 850 25.1 4.2 39.6 49 -5.5 22.2
10:30 1021 30.15 850 25.1 4.8 40.7 48 -5.4 22.3
10:35 1021 30.15 850 25.1 5 41 49 -4.8 23.4
10:40 1021 30.15 850 25.1 4.8 40.6 50 -4.8 23.4
10:45 1021 30.15 850 25.1 4.3 39.7 52 -4.7 23.6
10:50 1021 30.15 850 25.1 3.7 38.6 55 -4.6 23.7
10:55 1021 30.15 850 25.1 3.6 38.5 54 -5 23.1
11:00 1021 30.15 850 25.1 3 37.4 58 -4.5 24
11:05 1021 30.15 850 25.1 3.2 37.8 55 -4.8 23.3
11:10 1021 30.15 850 25.1 3.8 38.8 54 -4.6 23.7
11:15 1021 30.15 850 25.1 4.4 39.9 52 -4.6 23.8
11:20 1021 30.15 850 25.1 3.7 38.6 57 -4.1 24.7
11:25 1021 30.15 850 25.1 3.4 38.1 56 -4.5 23.8
11:30 1021 30.15 850 25.1 4 39.3 52 -4.9 23.2
11:35 1021 30.15 850 25.1 3.4 38.2 56 -4.5 23.8
11:40 1021 30.15 850 25.1 4.1 39.3 52 -4.9 23.2
11:45 1021 30.15 850 25.1 3.9 39.1 55 -4.4 24.1
11:50 1021 30.15 850 25.1 3.7 38.7 53 -4.9 23.1
11:55 1021 30.15 850 25.1 3.8 38.8 54 -4.6 23.6
12:00 1021 30.15 850 25.1 4.1 39.5 52 -4.7 23.5
12:05 1021 30.15 850 25.1 5 41 48 -5 23.1
12:10 1021 30.15 850 25.1 5.3 41.5 47 -5.2 22.6
12:15 1021 30.15 850 25.1 5.1 41.3 46 -5.6 21.9
12:20 1021 30.15 850 25.1 4.5 40.1 47 -5.8 21.5
12:25 1021 30.15 850 25.1 5.5 42 42 -6.4 20.5
12:30 1021 30.15 850 25.1 5.3 41.6 43 -6.2 20.9
12:35 1020 30.12 850 25.1 6.1 42.9 42 -5.9 21.4
12:40 1020 30.12 850 25.1 5.8 42.5 44 -5.6 22
12:45 1020 30.12 850 25.1 5.1 41.2 45 -6 21.2
12:50 1020 30.12 850 25.1 6 42.8 42 -6.1 21.1
12:55 1020 30.12 850 25.1 6.4 43.5 43 -5.4 22.2
13:00 1020 30.12 849 25.07 6.3 43.3 41 -5.9 21.5
13:05 1020 30.12 849 25.07 6.6 43.9 42 -5.4 22.2
13:10 1020 30.12 849 25.07 5.6 42 44 -5.6 21.9
13:15 1020 30.12 849 25.07 6.3 43.4 43 -5.3 22.4
13:20 1020 30.12 849 25.07 6.5 43.7 43 -5.3 22.5
13:25 1020 30.12 849 25.07 7 44.5 42 -5.1 22.8
13:30 1020 30.12 849 25.07 7.2 45 41 -5.1 22.9
13:35 1020 30.12 849 25.07 7.4 45.3 41 -5 23
13:40 1020 30.12 849 25.07 7.5 45.5 41 -4.8 23.4
13:45 1020 30.12 849 25.07 7.2 45 42 -4.8 23.4
13:50 1020 30.12 849 25.07 7.7 45.9 40 -5.2 22.6
13:55 1020 30.12 849 25.07 7.7 45.9 40 -5 23
14:00 1020 30.12 849 25.07 7.7 45.9 41 -4.6 23.8
14:05 1020 30.12 849 25.07 7.6 45.7 39 -5.3 22.5
14:10 1020 30.12 849 25.07 7.3 45.1 42 -4.9 23.2
14:15 1020 30.12 849 25.07 7.1 44.8 41 -5.2 22.6
14:20 1020 30.12 849 25.07 7.1 44.8 42 -4.8 23.3
14:25 1020 30.12 849 25.07 6.9 44.4 42 -5 23.1
14:30 1020 30.12 849 25.07 7 44.5 42 -5 22.9
14:35 1020 30.12 849 25.07 7.2 45 41 -5.1 22.9
14:40 1020 30.12 849 25.07 7.4 45.2 41 -5.2 22.7
14:45 1020 30.12 849 25.07 7.5 45.5 41 -4.9 23.1
14:50 1020 30.12 849 25.07 7.6 45.6 40 -5.2 22.6
14:55 1020 30.12 849 25.07 7.2 44.9 41 -5.2 22.7
15:00 1020 30.12 849 25.07 7.7 45.9 38 -5.7 21.7
15:05 1020 30.12 849 25.07 7.8 46 39 -5.2 22.7
15:10 1020 30.12 849 25.07 7.7 45.8 38 -5.8 21.6
15:15 1020 30.12 849 25.07 8.1 46.6 35 -6.3 20.6
15:20 1020 30.12 849 25.07 7.4 45.4 41 -5.1 22.8
15:25 1020 30.12 849 25.07 6.8 44.2 40 -5.8 21.5
15:30 1020 30.12 849 25.07 7.2 44.9 39 -6 21.2
15:35 1020 30.12 849 25.07 7.7 45.8 37 -5.9 21.3
15:40 1020 30.12 849 25.07 8 46.4 35 -6.4 20.4
15:45 1020 30.12 849 25.07 7.8 46 37 -6.2 20.9
15:50 1020 30.12 849 25.07 7.1 44.8 39 -6 21.2
15:55 1020 30.12 849 25.07 7.1 44.8 39 -6 21.1
16:00 1020 30.12 849 25.07 7.3 45.2 38 -6 21.3
16:05 1020 30.12 849 25.07 7.4 45.2 38 -6 21.2
16:10 1020 30.12 849 25.07 7.3 45.2 38 -6 21.2
16:15 1020 30.12 849 25.07 7.1 44.8 39 -6 21.3
16:20 1020 30.12 849 25.07 6.8 44.3 40 -6 21.2
16:25 1020 30.12 849 25.07 6.7 44 41 -5.8 21.6
16:30 1020 30.12 849 25.07 6.5 43.7 41 -5.8 21.5
16:35 1020 30.12 849 25.07 6.1 43 43 -5.6 22
16:40 1020 30.12 849 25.07 5.8 42.4 45 -5.2 22.6
16:45 1020 30.12 849 25.07 5.4 41.7 47 -5.1 22.8
16:50 1020 30.12 849 25.07 5.3 41.5 47 -5 22.9
16:55 1020 30.12 849 25.07 4.4 39.9 53 -4.3 24.2
17:00 1020 30.12 849 25.07 3.3 38 56 -4.7 23.5
17:05 1020 30.12 849 25.07 2.5 36.5 59 -4.8 23.3
17:10 1020 30.12 849 25.07 2 35.7 60 -5 23
17:15 1020 30.12 849 25.07 2 35.6 59 -5.1 22.9
17:20 1020 30.12 849 25.07 1.7 35.1 61 -5 23
17:25 1020 30.12 849 25.07 1.2 34.2 64 -4.8 23.3
17:30 1020 30.12 849 25.07 0.9 33.6 65 -5 23
17:35 1020 30.12 849 25.07 0.6 33.1 66 -5.1 22.8
17:40 1020 30.12 849 25.07 0.5 32.8 66 -5.1 22.9
17:45 1020 30.12 849 25.07 0.5 32.8 66 -5.1 22.8
17:50 1020 30.12 849 25.07 0.4 32.6 67 -5.1 22.7
17:55 1020 30.12 849 25.07 0.3 32.5 67 -5.2 22.7
18:00 1020 30.12 849 25.07 0.5 32.9 65 -5.3 22.4
18:05 1020 30.12 849 25.07 0.6 33.2 65 -5.2 22.6
18:10 1020 30.12 849 25.07 0.6 33 65 -5.3 22.4
18:15 1020 30.12 849 25.07 0.6 33.1 64 -5.4 22.3
18:20 1020 30.12 849 25.07 0.1 32.2 67 -5.3 22.5
18:25 1020 30.12 849 25.07 -0.3 31.4 68 -5.6 21.9
18:30 1020 30.12 849 25.07 -0.6 30.9 68 -5.8 21.5
18:35 1020 30.12 849 25.07 -0.1 31.9 64 -6.1 21
18:40 1020 30.12 849 25.07 -0.1 31.8 62 -6.4 20.4
18:45 1020 30.12 849 25.07 0.2 32.4 61 -6.4 20.5
18:50 1020 30.12 849 25.07 0.6 33.1 60 -6.2 20.8
18:55 1020 30.12 849 25.07 0.8 33.4 60 -6.1 20.9
19:00 1020 30.12 849 25.07 0.4 32.8 60 -6.5 20.3
19:05 1020 30.12 849 25.07 0.9 33.6 57 -6.8 19.8
19:10 1020 30.12 849 25.07 0.8 33.5 59 -6.3 20.6
19:15 1020 30.12 849 25.07 0.5 32.9 61 -6.2 20.9
19:20 1020 30.12 849 25.07 0.2 32.4 61 -6.4 20.4
19:25 1020 30.12 849 25.07 0 32.1 63 -6.2 20.8
19:30 1020 30.12 849 25.07 -0.4 31.3 65 -6.2 20.8
19:35 1020 30.12 849 25.07 -0.5 31.2 65 -6.3 20.6
19:40 1020 30.12 849 25.07 -0.4 31.2 65 -6.2 20.8
19:45 1020 30.12 849 25.07 -0.5 31.2 66 -6 21.2
19:50 1020 30.12 849 25.07 -0.7 30.7 67 -6.1 21
19:55 1020 30.12 849 25.07 -0.6 30.9 66 -6.3 20.7
20:00 1020 30.12 849 25.07 -0.4 31.2 65 -6.3 20.7
20:05 1020 30.12 849 25.07 -0.3 31.4 64 -6.2 20.8
20:10 1020 30.12 849 25.07 -0.3 31.5 63 -6.4 20.5
20:15 1020 30.12 849 25.07 0.1 32.2 61 -6.5 20.3
20:20 1020 30.12 849 25.07 0 32.1 63 -6.3 20.7
20:25 1020 30.12 849 25.07 -0.2 31.7 62 -6.6 20
20:30 1020 30.12 849 25.07 0.1 32.2 61 -6.5 20.2
20:35 1020 30.12 849 25.07 0.1 32.3 61 -6.5 20.3
20:40 1020 30.12 849 25.07 0.2 32.3 61 -6.5 20.4
20:45 1020 30.12 849 25.07 0.2 32.4 62 -6.3 20.7
20:50 1020 30.12 849 25.07 0.1 32.1 61 -6.5 20.3
20:55 1020 30.12 849 25.07 0.3 32.5 61 -6.5 20.3
21:00 1020 30.12 849 25.07 0.5 32.9 59 -6.7 20
21:05 1020 30.12 849 25.07 0.6 33.1 59 -6.5 20.2
21:10 1020 30.12 849 25.07 0.7 33.3 59 -6.4 20.4
21:15 1020 30.12 849 25.07 0.8 33.4 59 -6.4 20.5
21:20 1020 30.12 849 25.07 0.6 33.1 60 -6.3 20.7
21:25 1020 30.12 850 25.1 0.5 32.9 61 -6.2 20.9
21:30 1020 30.12 850 25.1 0.6 33.1 59 -6.5 20.4
21:35 1021 30.15 850 25.1 0.8 33.4 58 -6.5 20.3
21:40 1020 30.12 850 25.1 0.9 33.6 58 -6.4 20.5
21:45 1020 30.12 850 25.1 0.9 33.6 59 -6.3 20.7
21:50 1020 30.12 850 25.1 0.8 33.4 59 -6.3 20.7
21:55 1020 30.12 850 25.1 0.8 33.4 58 -6.5 20.3
22:00 1020 30.12 850 25.1 0.9 33.6 58 -6.4 20.4
22:05 1020 30.12 850 25.1 1.1 34 57 -6.6 20.1
22:10 1020 30.12 850 25.1 1.2 34.1 56 -6.6 20.1
22:15 1020 30.12 850 25.1 1.2 34.2 57 -6.4 20.4
22:20 1020 30.12 850 25.1 1.1 33.9 58 -6.4 20.5
22:25 1020 30.12 849 25.07 1 33.7 58 -6.4 20.4
22:30 1020 30.12 849 25.07 0.8 33.4 61 -5.9 21.4
22:35 1020 30.12 849 25.07 0.7 33.2 61 -5.9 21.4
22:40 1020 30.12 849 25.07 0.7 33.3 61 -5.9 21.4
22:45 1020 30.12 849 25.07 0.8 33.4 60 -6.2 20.9
22:50 1020 30.12 849 25.07 0.9 33.5 59 -6.2 20.9
22:55 1020 30.12 849 25.07 0.9 33.6 57 -6.6 20.2
23:00 1020 30.12 849 25.07 1 33.7 60 -6 21.2
23:05 1020 30.12 849 25.07 0.8 33.5 62 -5.7 21.7
23:10 1020 30.12 849 25.07 0.8 33.5 59 -6.4 20.6
23:15 1020 30.12 849 25.07 1.4 34.5 55 -6.6 20.2
23:20 1020 30.12 849 25.07 1.3 34.4 57 -6.2 20.8
23:25 1020 30.12 849 25.07 0.9 33.6 62 -5.5 22
23:30 1020 30.12 849 25.07 0.6 33.1 61 -6 21.1
23:35 1020 30.12 849 25.07 0.6 33.1 62 -5.8 21.5
23:40 1020 30.12 849 25.07 0.9 33.6 58 -6.5 20.4
23:45 1020 30.12 849 25.07 1.2 34.2 58 -6.2 20.8
23:50 1020 30.12 850 25.1 0.9 33.6 61 -5.8 21.5
23:55 1020 30.12 850 25.1 0.5 32.9 59 -6.5 20.2
24:00 1020 30.12 850 25.1 0.4 32.8 59 -6.6 20.1